sensor_id;sensor_type;location;lat;lon;timestamp;pressure;altitude;pressure_sealevel;temperature;humidity
73242;BME280;65659;49.234;-2.094;2023-04-25T00:01:13;100284.84;;;14.44;44.83
73242;BME280;65659;49.234;-2.094;2023-04-25T00:03:38;100285.19;;;14.70;44.41
73242;BME280;65659;49.234;-2.094;2023-04-25T00:06:03;100281.73;;;14.86;44.02
73242;BME280;65659;49.234;-2.094;2023-04-25T00:08:29;100275.94;;;15.08;43.75
73242;BME280;65659;49.234;-2.094;2023-04-25T00:10:54;100281.38;;;14.91;43.65
73242;BME280;65659;49.234;-2.094;2023-04-25T00:13:19;100280.97;;;14.73;43.67
73242;BME280;65659;49.234;-2.094;2023-04-25T00:15:45;100279.92;;;14.76;43.64
73242;BME280;65659;49.234;-2.094;2023-04-25T00:18:10;100281.97;;;14.81;43.71
73242;BME280;65659;49.234;-2.094;2023-04-25T00:20:35;100282.45;;;15.06;43.85
73242;BME280;65659;49.234;-2.094;2023-04-25T00:23:00;100281.98;;;14.82;43.76
73242;BME280;65659;49.234;-2.094;2023-04-25T00:25:25;100282.28;;;15.33;43.58
73242;BME280;65659;49.234;-2.094;2023-04-25T00:27:50;100283.53;;;14.90;43.67
73242;BME280;65659;49.234;-2.094;2023-04-25T00:30:15;100283.11;;;14.85;43.60
73242;BME280;65659;49.234;-2.094;2023-04-25T00:32:40;100281.41;;;14.94;43.16
73242;BME280;65659;49.234;-2.094;2023-04-25T00:35:05;100284.33;;;15.01;43.10
73242;BME280;65659;49.234;-2.094;2023-04-25T00:37:30;100284.34;;;14.96;43.15
73242;BME280;65659;49.234;-2.094;2023-04-25T00:39:57;100287.70;;;15.02;42.86
73242;BME280;65659;49.234;-2.094;2023-04-25T00:42:21;100290.92;;;15.05;42.58
73242;BME280;65659;49.234;-2.094;2023-04-25T00:44:45;100292.49;;;14.99;42.51
73242;BME280;65659;49.234;-2.094;2023-04-25T00:47:11;100293.50;;;14.94;42.25
73242;BME280;65659;49.234;-2.094;2023-04-25T00:49:35;100291.19;;;14.96;42.02
73242;BME280;65659;49.234;-2.094;2023-04-25T00:52:00;100290.27;;;15.20;42.11
73242;BME280;65659;49.234;-2.094;2023-04-25T00:54:25;100293.87;;;14.94;42.19
73242;BME280;65659;49.234;-2.094;2023-04-25T00:56:50;100295.78;;;14.95;41.90
73242;BME280;65659;49.234;-2.094;2023-04-25T00:59:17;100299.87;;;14.95;41.74
73242;BME280;65659;49.234;-2.094;2023-04-25T01:01:42;100300.58;;;15.40;41.78
73242;BME280;65659;49.234;-2.094;2023-04-25T01:04:07;100299.39;;;14.92;41.71
73242;BME280;65659;49.234;-2.094;2023-04-25T01:06:32;100297.33;;;14.93;41.71
73242;BME280;65659;49.234;-2.094;2023-04-25T01:08:57;100297.30;;;14.89;41.79
73242;BME280;65659;49.234;-2.094;2023-04-25T01:11:22;100301.87;;;14.71;41.90
73242;BME280;65659;49.234;-2.094;2023-04-25T01:13:47;100301.67;;;15.01;42.03
73242;BME280;65659;49.234;-2.094;2023-04-25T01:16:12;100301.34;;;14.99;41.82
73242;BME280;65659;49.234;-2.094;2023-04-25T01:18:39;100300.45;;;14.98;41.83
73242;BME280;65659;49.234;-2.094;2023-04-25T01:21:07;100305.12;;;15.21;42.04
73242;BME280;65659;49.234;-2.094;2023-04-25T01:23:27;100309.92;;;14.98;42.08
73242;BME280;65659;49.234;-2.094;2023-04-25T01:25:52;100306.02;;;14.96;42.10
73242;BME280;65659;49.234;-2.094;2023-04-25T01:28:17;100307.81;;;14.93;42.20
73242;BME280;65659;49.234;-2.094;2023-04-25T01:30:43;100312.15;;;14.92;42.41
73242;BME280;65659;49.234;-2.094;2023-04-25T01:33:08;100313.73;;;14.93;42.34
73242;BME280;65659;49.234;-2.094;2023-04-25T01:35:32;100318.79;;;14.93;42.20
73242;BME280;65659;49.234;-2.094;2023-04-25T01:37:57;100321.23;;;15.14;42.15
73242;BME280;65659;49.234;-2.094;2023-04-25T01:40:24;100327.73;;;15.13;42.32
73242;BME280;65659;49.234;-2.094;2023-04-25T01:42:49;100334.38;;;15.05;42.22
73242;BME280;65659;49.234;-2.094;2023-04-25T01:45:13;100333.56;;;15.03;42.44
73242;BME280;65659;49.234;-2.094;2023-04-25T01:47:39;100332.66;;;14.85;42.67
73242;BME280;65659;49.234;-2.094;2023-04-25T01:50:05;100334.49;;;14.70;43.09
73242;BME280;65659;49.234;-2.094;2023-04-25T01:52:29;100334.52;;;14.89;43.20
73242;BME280;65659;49.234;-2.094;2023-04-25T01:54:54;100334.02;;;14.80;43.28
73242;BME280;65659;49.234;-2.094;2023-04-25T01:57:19;100334.06;;;14.55;43.29
73242;BME280;65659;49.234;-2.094;2023-04-25T01:59:45;100327.31;;;14.48;42.87
73242;BME280;65659;49.234;-2.094;2023-04-25T02:02:10;100325.29;;;14.43;42.81
73242;BME280;65659;49.234;-2.094;2023-04-25T02:04:35;100324.09;;;14.63;42.83
73242;BME280;65659;49.234;-2.094;2023-04-25T02:07:00;100323.87;;;14.55;42.80
73242;BME280;65659;49.234;-2.094;2023-04-25T02:09:25;100330.96;;;14.48;43.02
73242;BME280;65659;49.234;-2.094;2023-04-25T02:11:50;100329.34;;;14.41;43.00
73242;BME280;65659;49.234;-2.094;2023-04-25T02:14:15;100331.69;;;14.39;43.27
73242;BME280;65659;49.234;-2.094;2023-04-25T02:16:40;100331.50;;;14.55;43.17
73242;BME280;65659;49.234;-2.094;2023-04-25T02:19:05;100332.95;;;14.28;43.31
73242;BME280;65659;49.234;-2.094;2023-04-25T02:21:31;100341.93;;;14.26;43.37
73242;BME280;65659;49.234;-2.094;2023-04-25T02:23:56;100345.18;;;14.51;43.20
73242;BME280;65659;49.234;-2.094;2023-04-25T02:26:21;100346.44;;;14.32;43.29
73242;BME280;65659;49.234;-2.094;2023-04-25T02:28:47;100348.65;;;14.35;43.40
73242;BME280;65659;49.234;-2.094;2023-04-25T02:31:12;100353.40;;;14.58;43.55
73242;BME280;65659;49.234;-2.094;2023-04-25T02:33:38;100354.51;;;14.56;43.68
73242;BME280;65659;49.234;-2.094;2023-04-25T02:36:03;100355.89;;;14.56;43.57
73242;BME280;65659;49.234;-2.094;2023-04-25T02:38:28;100356.62;;;14.51;43.44
73242;BME280;65659;49.234;-2.094;2023-04-25T02:40:53;100354.25;;;14.14;43.21
73242;BME280;65659;49.234;-2.094;2023-04-25T02:43:19;100355.68;;;14.66;43.27
73242;BME280;65659;49.234;-2.094;2023-04-25T02:45:44;100357.94;;;14.64;43.26
73242;BME280;65659;49.234;-2.094;2023-04-25T02:48:10;100354.62;;;14.59;43.13
73242;BME280;65659;49.234;-2.094;2023-04-25T02:50:36;100354.54;;;14.30;43.37
73242;BME280;65659;49.234;-2.094;2023-04-25T02:53:01;100357.13;;;13.97;43.48
73242;BME280;65659;49.234;-2.094;2023-04-25T02:55:26;100360.11;;;14.35;43.23
73242;BME280;65659;49.234;-2.094;2023-04-25T02:57:52;100364.42;;;14.33;43.16
73242;BME280;65659;49.234;-2.094;2023-04-25T03:00:17;100368.76;;;14.21;43.22
73242;BME280;65659;49.234;-2.094;2023-04-25T03:02:43;100368.58;;;14.18;43.46
73242;BME280;65659;49.234;-2.094;2023-04-25T03:05:08;100368.13;;;14.09;43.62
73242;BME280;65659;49.234;-2.094;2023-04-25T03:07:33;100363.85;;;13.75;43.89
73242;BME280;65659;49.234;-2.094;2023-04-25T03:09:58;100366.22;;;13.93;44.05
73242;BME280;65659;49.234;-2.094;2023-04-25T03:12:23;100365.53;;;13.62;44.10
73242;BME280;65659;49.234;-2.094;2023-04-25T03:14:48;100365.25;;;13.81;44.20
73242;BME280;65659;49.234;-2.094;2023-04-25T03:17:13;100366.75;;;14.00;44.31
73242;BME280;65659;49.234;-2.094;2023-04-25T03:19:38;100371.77;;;13.77;44.27
73242;BME280;65659;49.234;-2.094;2023-04-25T03:22:03;100370.03;;;13.79;43.93
73242;BME280;65659;49.234;-2.094;2023-04-25T03:24:28;100369.87;;;13.82;43.76
73242;BME280;65659;49.234;-2.094;2023-04-25T03:26:54;100364.94;;;13.80;43.57
73242;BME280;65659;49.234;-2.094;2023-04-25T03:29:20;100366.38;;;13.78;43.47
73242;BME280;65659;49.234;-2.094;2023-04-25T03:31:46;100366.95;;;13.62;43.64
73242;BME280;65659;49.234;-2.094;2023-04-25T03:34:10;100369.63;;;13.66;43.37
73242;BME280;65659;49.234;-2.094;2023-04-25T03:36:35;100375.48;;;13.63;43.31
73242;BME280;65659;49.234;-2.094;2023-04-25T03:39:00;100370.71;;;13.51;42.94
73242;BME280;65659;49.234;-2.094;2023-04-25T03:41:25;100377.83;;;13.62;42.99
73242;BME280;65659;49.234;-2.094;2023-04-25T03:43:51;100379.65;;;13.60;42.82
73242;BME280;65659;49.234;-2.094;2023-04-25T03:46:16;100377.99;;;13.72;42.85
73242;BME280;65659;49.234;-2.094;2023-04-25T03:48:41;100373.60;;;13.14;42.88
73242;BME280;65659;49.234;-2.094;2023-04-25T03:51:06;100374.38;;;12.97;43.06
73242;BME280;65659;49.234;-2.094;2023-04-25T03:53:31;100373.19;;;13.25;43.08
73242;BME280;65659;49.234;-2.094;2023-04-25T03:55:56;100381.05;;;13.16;43.41
73242;BME280;65659;49.234;-2.094;2023-04-25T03:58:22;100379.93;;;13.36;43.55
73242;BME280;65659;49.234;-2.094;2023-04-25T04:00:47;100386.22;;;13.02;43.82
73242;BME280;65659;49.234;-2.094;2023-04-25T04:03:13;100383.87;;;13.14;44.01
73242;BME280;65659;49.234;-2.094;2023-04-25T04:05:38;100386.49;;;12.62;44.01
73242;BME280;65659;49.234;-2.094;2023-04-25T04:08:03;100385.80;;;13.00;43.76
73242;BME280;65659;49.234;-2.094;2023-04-25T04:10:28;100381.89;;;12.99;43.74
73242;BME280;65659;49.234;-2.094;2023-04-25T04:12:53;100387.91;;;12.79;44.00
73242;BME280;65659;49.234;-2.094;2023-04-25T04:15:18;100392.70;;;12.59;43.95
73242;BME280;65659;49.234;-2.094;2023-04-25T04:17:43;100397.38;;;12.92;44.16
73242;BME280;65659;49.234;-2.094;2023-04-25T04:20:09;100399.76;;;12.92;44.27
73242;BME280;65659;49.234;-2.094;2023-04-25T04:22:34;100400.03;;;12.35;44.23
73242;BME280;65659;49.234;-2.094;2023-04-25T04:24:59;100396.23;;;12.53;43.82
73242;BME280;65659;49.234;-2.094;2023-04-25T04:27:24;100396.26;;;12.74;43.60
73242;BME280;65659;49.234;-2.094;2023-04-25T04:29:50;100397.21;;;12.95;43.26
73242;BME280;65659;49.234;-2.094;2023-04-25T04:32:15;100396.89;;;12.44;43.30
73242;BME280;65659;49.234;-2.094;2023-04-25T04:34:39;100395.51;;;12.37;43.23
73242;BME280;65659;49.234;-2.094;2023-04-25T04:37:05;100402.11;;;12.76;43.28
73242;BME280;65659;49.234;-2.094;2023-04-25T04:39:30;100400.87;;;12.46;43.33
73242;BME280;65659;49.234;-2.094;2023-04-25T04:41:55;100402.73;;;12.39;43.44
73242;BME280;65659;49.234;-2.094;2023-04-25T04:44:21;100401.48;;;12.17;43.43
73242;BME280;65659;49.234;-2.094;2023-04-25T04:46:46;100405.27;;;12.37;43.58
73242;BME280;65659;49.234;-2.094;2023-04-25T04:49:12;100407.51;;;12.39;43.51
73242;BME280;65659;49.234;-2.094;2023-04-25T04:51:37;100411.06;;;12.43;43.24
73242;BME280;65659;49.234;-2.094;2023-04-25T04:54:02;100415.79;;;12.46;43.28
73242;BME280;65659;49.234;-2.094;2023-04-25T04:56:26;100420.93;;;12.68;43.04
73242;BME280;65659;49.234;-2.094;2023-04-25T04:58:52;100421.05;;;12.42;42.87
73242;BME280;65659;49.234;-2.094;2023-04-25T05:01:17;100426.01;;;12.07;42.87
73242;BME280;65659;49.234;-2.094;2023-04-25T05:03:42;100430.86;;;12.73;42.71
73242;BME280;65659;49.234;-2.094;2023-04-25T05:06:07;100435.20;;;12.45;42.99
73242;BME280;65659;49.234;-2.094;2023-04-25T05:08:32;100431.66;;;12.49;42.72
73242;BME280;65659;49.234;-2.094;2023-04-25T05:10:57;100433.96;;;12.41;42.88
73242;BME280;65659;49.234;-2.094;2023-04-25T05:13:22;100444.08;;;12.68;42.97
73242;BME280;65659;49.234;-2.094;2023-04-25T05:15:47;100439.11;;;12.42;43.15
73242;BME280;65659;49.234;-2.094;2023-04-25T05:18:13;100449.04;;;12.27;43.28
73242;BME280;65659;49.234;-2.094;2023-04-25T05:20:38;100450.11;;;12.54;43.33
73242;BME280;65659;49.234;-2.094;2023-04-25T05:23:03;100449.06;;;12.43;43.42
73242;BME280;65659;49.234;-2.094;2023-04-25T05:25:28;100453.30;;;12.41;43.18
73242;BME280;65659;49.234;-2.094;2023-04-25T05:27:53;100455.67;;;12.60;43.50
73242;BME280;65659;49.234;-2.094;2023-04-25T05:30:19;100468.91;;;12.51;43.65
73242;BME280;65659;49.234;-2.094;2023-04-25T05:32:44;100463.66;;;12.61;43.62
73242;BME280;65659;49.234;-2.094;2023-04-25T05:35:10;100465.81;;;12.67;43.75
73242;BME280;65659;49.234;-2.094;2023-04-25T05:37:35;100464.16;;;12.70;43.61
73242;BME280;65659;49.234;-2.094;2023-04-25T05:40:00;100471.51;;;12.78;43.47
73242;BME280;65659;49.234;-2.094;2023-04-25T05:42:25;100476.27;;;12.48;43.57
73242;BME280;65659;49.234;-2.094;2023-04-25T05:44:50;100478.97;;;12.86;43.40
73242;BME280;65659;49.234;-2.094;2023-04-25T05:47:15;100486.48;;;12.64;43.38
73242;BME280;65659;49.234;-2.094;2023-04-25T05:49:40;100491.69;;;12.52;43.45
73242;BME280;65659;49.234;-2.094;2023-04-25T05:52:05;100497.13;;;12.51;43.54
73242;BME280;65659;49.234;-2.094;2023-04-25T05:54:30;100490.32;;;12.82;43.41
73242;BME280;65659;49.234;-2.094;2023-04-25T05:56:57;100493.09;;;12.98;43.03
73242;BME280;65659;49.234;-2.094;2023-04-25T05:59:21;100494.46;;;12.59;42.77
73242;BME280;65659;49.234;-2.094;2023-04-25T06:01:46;100499.51;;;12.76;42.82
73242;BME280;65659;49.234;-2.094;2023-04-25T06:04:11;100502.57;;;12.96;42.85
73242;BME280;65659;49.234;-2.094;2023-04-25T06:06:36;100513.10;;;13.05;42.53
73242;BME280;65659;49.234;-2.094;2023-04-25T06:09:02;100514.36;;;13.10;42.39
73242;BME280;65659;49.234;-2.094;2023-04-25T06:11:26;100510.38;;;12.89;42.03
73242;BME280;65659;49.234;-2.094;2023-04-25T06:13:52;100512.64;;;12.89;42.08
73242;BME280;65659;49.234;-2.094;2023-04-25T06:16:17;100513.56;;;12.99;41.75
73242;BME280;65659;49.234;-2.094;2023-04-25T06:18:42;100514.02;;;12.94;41.37
73242;BME280;65659;49.234;-2.094;2023-04-25T06:21:07;100503.49;;;13.08;40.88
73242;BME280;65659;49.234;-2.094;2023-04-25T06:23:32;100503.97;;;13.04;40.87
73242;BME280;65659;49.234;-2.094;2023-04-25T06:25:57;100508.62;;;12.92;40.77
73242;BME280;65659;49.234;-2.094;2023-04-25T06:28:22;100508.37;;;13.17;40.72
73242;BME280;65659;49.234;-2.094;2023-04-25T06:30:47;100515.42;;;13.09;40.34
73242;BME280;65659;49.234;-2.094;2023-04-25T06:33:13;100514.12;;;12.89;40.01
73242;BME280;65659;49.234;-2.094;2023-04-25T06:35:37;100518.78;;;13.09;39.71
73242;BME280;65659;49.234;-2.094;2023-04-25T06:38:04;100520.07;;;13.11;39.44
73242;BME280;65659;49.234;-2.094;2023-04-25T06:40:29;100521.49;;;12.91;39.08
73242;BME280;65659;49.234;-2.094;2023-04-25T06:42:54;100518.29;;;13.45;38.71
73242;BME280;65659;49.234;-2.094;2023-04-25T06:45:19;100526.75;;;12.75;38.85
73242;BME280;65659;49.234;-2.094;2023-04-25T06:47:46;100525.00;;;13.35;38.72
73242;BME280;65659;49.234;-2.094;2023-04-25T06:50:10;100521.83;;;13.53;38.58
73242;BME280;65659;49.234;-2.094;2023-04-25T06:52:35;100525.86;;;13.70;38.56
73242;BME280;65659;49.234;-2.094;2023-04-25T06:55:00;100525.38;;;13.61;38.74
73242;BME280;65659;49.234;-2.094;2023-04-25T06:57:26;100525.29;;;13.96;38.70
73242;BME280;65659;49.234;-2.094;2023-04-25T06:59:52;100530.20;;;13.81;38.23
73242;BME280;65659;49.234;-2.094;2023-04-25T07:02:18;100534.34;;;14.16;37.59
73242;BME280;65659;49.234;-2.094;2023-04-25T07:04:43;100535.99;;;13.90;37.25
73242;BME280;65659;49.234;-2.094;2023-04-25T07:07:07;100545.35;;;13.96;36.97
73242;BME280;65659;49.234;-2.094;2023-04-25T07:09:33;100551.40;;;14.42;36.56
73242;BME280;65659;49.234;-2.094;2023-04-25T07:11:58;100548.22;;;14.31;36.32
73242;BME280;65659;49.234;-2.094;2023-04-25T07:14:24;100552.03;;;14.16;36.29
73242;BME280;65659;49.234;-2.094;2023-04-25T07:16:49;100546.45;;;14.65;35.72
73242;BME280;65659;49.234;-2.094;2023-04-25T07:19:15;100546.54;;;14.07;35.92
73242;BME280;65659;49.234;-2.094;2023-04-25T07:21:40;100545.91;;;14.56;35.52
73242;BME280;65659;49.234;-2.094;2023-04-25T07:24:06;100539.80;;;14.80;35.42
73242;BME280;65659;49.234;-2.094;2023-04-25T07:26:30;100540.12;;;14.43;35.33
73242;BME280;65659;49.234;-2.094;2023-04-25T07:28:56;100536.03;;;14.80;35.12
73242;BME280;65659;49.234;-2.094;2023-04-25T07:31:21;100536.96;;;15.09;34.84
73242;BME280;65659;49.234;-2.094;2023-04-25T07:33:47;100544.97;;;14.47;35.13
73242;BME280;65659;49.234;-2.094;2023-04-25T07:36:12;100547.67;;;14.74;34.49
73242;BME280;65659;49.234;-2.094;2023-04-25T07:38:37;100548.42;;;15.17;34.32
73242;BME280;65659;49.234;-2.094;2023-04-25T07:41:02;100546.01;;;15.08;34.19
73242;BME280;65659;49.234;-2.094;2023-04-25T07:43:27;100554.34;;;15.24;34.32
73242;BME280;65659;49.234;-2.094;2023-04-25T07:45:52;100549.14;;;15.76;34.64
73242;BME280;65659;49.234;-2.094;2023-04-25T07:48:17;100552.98;;;15.98;35.01
73242;BME280;65659;49.234;-2.094;2023-04-25T07:50:43;100554.25;;;15.74;36.00
73242;BME280;65659;49.234;-2.094;2023-04-25T07:53:08;100553.58;;;13.86;35.36
73242;BME280;65659;49.234;-2.094;2023-04-25T07:55:33;100552.61;;;14.81;33.83
73242;BME280;65659;49.234;-2.094;2023-04-25T07:57:59;100551.95;;;15.22;32.93
73242;BME280;65659;49.234;-2.094;2023-04-25T08:00:24;100553.31;;;15.35;32.63
73242;BME280;65659;49.234;-2.094;2023-04-25T08:02:50;100557.71;;;16.13;32.28
73242;BME280;65659;49.234;-2.094;2023-04-25T08:05:16;100557.62;;;15.37;31.83
73242;BME280;65659;49.234;-2.094;2023-04-25T08:07:41;100556.11;;;15.74;31.69
73242;BME280;65659;49.234;-2.094;2023-04-25T08:10:09;100558.94;;;15.94;31.88
73242;BME280;65659;49.234;-2.094;2023-04-25T08:12:32;100555.95;;;15.91;31.81
73242;BME280;65659;49.234;-2.094;2023-04-25T08:14:57;100555.92;;;16.14;31.29
73242;BME280;65659;49.234;-2.094;2023-04-25T08:17:22;100558.38;;;16.07;31.26
73242;BME280;65659;49.234;-2.094;2023-04-25T08:25:00;100576.34;;;16.16;31.07
73242;BME280;65659;49.234;-2.094;2023-04-25T08:29:28;100587.28;;;16.22;30.61
73242;BME280;65659;49.234;-2.094;2023-04-25T08:31:54;100586.12;;;16.49;30.18
73242;BME280;65659;49.234;-2.094;2023-04-25T08:34:29;100587.44;;;16.54;30.24
73242;BME280;65659;49.234;-2.094;2023-04-25T08:36:56;100587.83;;;16.01;30.34
73242;BME280;65659;49.234;-2.094;2023-04-25T08:39:16;100588.83;;;15.91;30.34
73242;BME280;65659;49.234;-2.094;2023-04-25T08:41:41;100593.67;;;16.18;30.47
73242;BME280;65659;49.234;-2.094;2023-04-25T08:44:09;100599.77;;;16.34;30.57
73242;BME280;65659;49.234;-2.094;2023-04-25T08:46:32;100599.68;;;16.55;30.12
73242;BME280;65659;49.234;-2.094;2023-04-25T08:49:04;100599.22;;;16.40;30.03
73242;BME280;65659;49.234;-2.094;2023-04-25T08:51:24;100601.79;;;16.56;29.54
73242;BME280;65659;49.234;-2.094;2023-04-25T08:54:15;100606.29;;;16.47;29.51
73242;BME280;65659;49.234;-2.094;2023-04-25T08:56:14;100607.28;;;16.53;29.75
73242;BME280;65659;49.234;-2.094;2023-04-25T08:58:49;100600.78;;;16.64;29.93
73242;BME280;65659;49.234;-2.094;2023-04-25T09:01:09;100606.85;;;16.97;29.91
73242;BME280;65659;49.234;-2.094;2023-04-25T09:03:44;100606.06;;;17.26;29.54
73242;BME280;65659;49.234;-2.094;2023-04-25T09:06:21;100607.41;;;16.97;29.56
73242;BME280;65659;49.234;-2.094;2023-04-25T09:08:20;100612.71;;;17.10;29.29
73242;BME280;65659;49.234;-2.094;2023-04-25T09:10:54;100608.65;;;16.76;29.38
73242;BME280;65659;49.234;-2.094;2023-04-25T09:13:13;100607.20;;;16.85;29.36
73242;BME280;65659;49.234;-2.094;2023-04-25T09:15:50;100607.99;;;16.87;29.28
73242;BME280;65659;49.234;-2.094;2023-04-25T09:17:59;100615.30;;;17.00;29.05
73242;BME280;65659;49.234;-2.094;2023-04-25T09:20:34;100619.23;;;17.16;28.99
73242;BME280;65659;49.234;-2.094;2023-04-25T09:23:02;100622.70;;;17.24;28.22
73242;BME280;65659;49.234;-2.094;2023-04-25T09:25:17;100615.97;;;17.43;27.15
73242;BME280;65659;49.234;-2.094;2023-04-25T09:27:50;100621.41;;;17.41;26.88
73242;BME280;65659;49.234;-2.094;2023-04-25T09:30:07;100614.76;;;17.38;27.28
73242;BME280;65659;49.234;-2.094;2023-04-25T09:32:39;100611.54;;;17.34;27.46
73242;BME280;65659;49.234;-2.094;2023-04-25T09:34:59;100616.00;;;17.40;27.67
73242;BME280;65659;49.234;-2.094;2023-04-25T09:37:29;100616.50;;;16.79;28.19
73242;BME280;65659;49.234;-2.094;2023-04-25T09:40:06;100611.72;;;17.57;28.22
73242;BME280;65659;49.234;-2.094;2023-04-25T09:42:26;100606.59;;;17.24;27.67
73242;BME280;65659;49.234;-2.094;2023-04-25T09:44:52;100613.46;;;17.28;27.61
73242;BME280;65659;49.234;-2.094;2023-04-25T09:47:16;100614.12;;;17.16;27.84
73242;BME280;65659;49.234;-2.094;2023-04-25T09:49:43;100612.54;;;17.14;27.90
73242;BME280;65659;49.234;-2.094;2023-04-25T09:52:02;100617.35;;;17.17;27.28
73242;BME280;65659;49.234;-2.094;2023-04-25T09:54:44;100616.27;;;17.39;27.44
73242;BME280;65659;49.234;-2.094;2023-04-25T09:56:57;100619.68;;;17.10;27.54
73242;BME280;65659;49.234;-2.094;2023-04-25T09:59:16;100614.77;;;17.14;27.60
73242;BME280;65659;49.234;-2.094;2023-04-25T10:01:44;100614.23;;;17.25;27.63
73242;BME280;65659;49.234;-2.094;2023-04-25T10:04:05;100610.18;;;17.27;27.48
73242;BME280;65659;49.234;-2.094;2023-04-25T10:06:41;100616.75;;;17.95;27.34
73242;BME280;65659;49.234;-2.094;2023-04-25T10:09:04;100612.74;;;17.53;27.04
73242;BME280;65659;49.234;-2.094;2023-04-25T10:11:35;100614.17;;;17.66;26.92
73242;BME280;65659;49.234;-2.094;2023-04-25T10:13:55;100616.79;;;17.48;26.97
73242;BME280;65659;49.234;-2.094;2023-04-25T10:16:24;100613.97;;;18.00;27.27
73242;BME280;65659;49.234;-2.094;2023-04-25T10:19:00;100617.88;;;17.71;27.03
73242;BME280;65659;49.234;-2.094;2023-04-25T10:21:05;100622.09;;;17.56;27.22
73242;BME280;65659;49.234;-2.094;2023-04-25T10:23:40;100620.51;;;17.95;26.74
73242;BME280;65659;49.234;-2.094;2023-04-25T10:28:21;100626.55;;;18.11;26.45
73242;BME280;65659;49.234;-2.094;2023-04-25T10:31:01;100633.87;;;18.17;26.08
73242;BME280;65659;49.234;-2.094;2023-04-25T10:33:21;100633.14;;;18.42;26.20
73242;BME280;65659;49.234;-2.094;2023-04-25T10:35:47;100634.75;;;17.88;26.59
73242;BME280;65659;49.234;-2.094;2023-04-25T10:38:16;100631.89;;;18.38;26.03
73242;BME280;65659;49.234;-2.094;2023-04-25T10:40:30;100625.52;;;18.41;26.01
73242;BME280;65659;49.234;-2.094;2023-04-25T10:42:53;100627.83;;;18.31;26.02
73242;BME280;65659;49.234;-2.094;2023-04-25T10:45:21;100625.98;;;18.24;25.77
73242;BME280;65659;49.234;-2.094;2023-04-25T10:47:46;100631.25;;;18.39;25.83
73242;BME280;65659;49.234;-2.094;2023-04-25T10:50:13;100641.67;;;18.43;25.79
73242;BME280;65659;49.234;-2.094;2023-04-25T10:52:35;100644.53;;;18.74;25.81
73242;BME280;65659;49.234;-2.094;2023-04-25T10:55:03;100639.35;;;18.39;26.19
73242;BME280;65659;49.234;-2.094;2023-04-25T10:57:31;100642.27;;;18.64;25.73
73242;BME280;65659;49.234;-2.094;2023-04-25T11:02:21;100648.59;;;19.35;25.21
73242;BME280;65659;49.234;-2.094;2023-04-25T11:05:13;100644.98;;;19.49;25.97
73242;BME280;65659;49.234;-2.094;2023-04-25T11:07:22;100643.21;;;18.76;25.88
73242;BME280;65659;49.234;-2.094;2023-04-25T11:09:45;100645.78;;;19.65;25.89
73242;BME280;65659;49.234;-2.094;2023-04-25T11:12:01;100649.59;;;18.73;26.05
73242;BME280;65659;49.234;-2.094;2023-04-25T11:14:38;100654.40;;;18.54;26.03
73242;BME280;65659;49.234;-2.094;2023-04-25T11:16:57;100651.52;;;18.80;25.85
73242;BME280;65659;49.234;-2.094;2023-04-25T11:21:58;100652.72;;;18.86;25.33
73242;BME280;65659;49.234;-2.094;2023-04-25T11:26:50;100651.70;;;19.29;25.36
73242;BME280;65659;49.234;-2.094;2023-04-25T11:29:08;100651.82;;;19.56;25.06
73242;BME280;65659;49.234;-2.094;2023-04-25T11:33:51;100656.10;;;19.54;24.28
73242;BME280;65659;49.234;-2.094;2023-04-25T11:36:17;100657.97;;;19.63;23.96
73242;BME280;65659;49.234;-2.094;2023-04-25T11:38:41;100647.98;;;19.37;23.87
73242;BME280;65659;49.234;-2.094;2023-04-25T11:41:04;100650.34;;;19.52;23.69
73242;BME280;65659;49.234;-2.094;2023-04-25T11:43:40;100651.31;;;19.71;23.68
73242;BME280;65659;49.234;-2.094;2023-04-25T11:46:15;100651.18;;;19.74;23.54
73242;BME280;65659;49.234;-2.094;2023-04-25T11:55:37;100640.91;;;19.58;24.14
73242;BME280;65659;49.234;-2.094;2023-04-25T11:58:11;100636.73;;;19.62;23.59
73242;BME280;65659;49.234;-2.094;2023-04-25T12:00:38;100641.82;;;19.79;22.88
73242;BME280;65659;49.234;-2.094;2023-04-25T12:03:16;100638.42;;;20.16;23.33
73242;BME280;65659;49.234;-2.094;2023-04-25T12:05:35;100636.83;;;19.62;23.78
73242;BME280;65659;49.234;-2.094;2023-04-25T12:07:44;100631.44;;;19.78;23.84
73242;BME280;65659;49.234;-2.094;2023-04-25T12:10:21;100631.98;;;19.77;23.71
73242;BME280;65659;49.234;-2.094;2023-04-25T12:12:44;100637.29;;;20.18;23.58
73242;BME280;65659;49.234;-2.094;2023-04-25T12:15:11;100640.62;;;20.20;23.29
73242;BME280;65659;49.234;-2.094;2023-04-25T12:17:28;100639.97;;;20.08;23.20
73242;BME280;65659;49.234;-2.094;2023-04-25T12:19:52;100638.39;;;20.12;22.56
73242;BME280;65659;49.234;-2.094;2023-04-25T12:22:22;100628.69;;;20.21;22.98
73242;BME280;65659;49.234;-2.094;2023-04-25T12:24:47;100626.36;;;20.19;22.50
73242;BME280;65659;49.234;-2.094;2023-04-25T12:27:13;100630.44;;;20.30;22.73
73242;BME280;65659;49.234;-2.094;2023-04-25T12:29:40;100634.60;;;20.41;22.84
73242;BME280;65659;49.234;-2.094;2023-04-25T12:32:09;100633.86;;;20.21;22.81
73242;BME280;65659;49.234;-2.094;2023-04-25T12:34:38;100633.64;;;20.23;22.86
73242;BME280;65659;49.234;-2.094;2023-04-25T12:36:55;100635.35;;;20.02;22.78
73242;BME280;65659;49.234;-2.094;2023-04-25T12:39:23;100635.64;;;20.17;22.32
73242;BME280;65659;49.234;-2.094;2023-04-25T12:41:53;100632.49;;;20.27;22.59
73242;BME280;65659;49.234;-2.094;2023-04-25T12:44:14;100634.42;;;20.30;22.79
73242;BME280;65659;49.234;-2.094;2023-04-25T12:46:39;100635.13;;;20.51;22.53
73242;BME280;65659;49.234;-2.094;2023-04-25T12:49:04;100633.69;;;20.62;22.10
73242;BME280;65659;49.234;-2.094;2023-04-25T12:51:33;100636.08;;;21.17;22.21
73242;BME280;65659;49.234;-2.094;2023-04-25T12:54:01;100637.30;;;21.26;21.94
73242;BME280;65659;49.234;-2.094;2023-04-25T12:56:32;100628.48;;;21.38;21.43